Livorno Express — ZCDV9 — position and weather

sailwx.info

Track history (hours):
 
Tides and Currents Weather Stations Pressure Air Temp Water Temp Dewpoint Dewpoint Depression Visibility Wind Speed Wind Dir Waves Ship Positions

Livorno Express

Last reported at 2014-Aug-20 04:33 UTC. Time now 2014-Aug-20 04:56 UTC.
Position N 41°44' E 008°01'.

Type: Cargo ship. MMSI: 310541000.

Date/timePositionNaut miles runAvg speedWind from/ knotsBaromVisibWave heightAir tempDewpointWater temp
2014-Aug-20 04:33N 41°44' E 008°01'2017.3
2014-Aug-20 03:24N 41°25' E 007°56'1517.2
2014-Aug-20 02:33N 41°10' E 007°55'1717.3
2014-Aug-20 01:33N 40°53' E 007°55'1717.0
2014-Aug-20 00:33N 40°36' E 007°56'1716.7
2014-Aug-19 23:33N 40°19' E 007°56'1716.9
2014-Aug-19 22:33N 40°02' E 007°56'1716.8
2014-Aug-19 21:33N 39°45' E 007°56'1616.3
2014-Aug-19 20:33N 39°29' E 007°57'1616.4
2014-Aug-19 19:33N 39°13' E 007°57'1616.1
2014-Aug-19 18:32N 38°58' E 008°06'1615.8
2014-Aug-19 17:33N 38°45' E 008°17'1514.6
2014-Aug-19 16:31N 38°39' E 008°35'1515.6
2014-Aug-19 15:33N 38°42' E 008°54'1717.2
2014-Aug-19 14:33N 38°56' E 009°06'1212.0
2014-Aug-19 13:33N 39°08' E 009°06'5 5.0
2014-Aug-19 12:31N 39°13' E 009°04'0 0.0
2014-Aug-19 11:31N 39°13' E 009°04'0 0.0
2014-Aug-19 10:31N 39°13' E 009°04'0 0.0
2014-Aug-19 09:31N 39°13' E 009°04'0 0.0
2014-Aug-19 08:31N 39°13' E 009°04'0 0.0
2014-Aug-19 07:31N 39°13' E 009°04'0 0.0
2014-Aug-19 06:31N 39°13' E 009°04'0 0.0
2014-Aug-19 05:31N 39°13' E 009°04'0 0.0
2014-Aug-19 04:31N 39°13' E 009°04'0 0.0
2014-Aug-19 03:31N 39°13' E 009°04'0 0.0
2014-Aug-19 02:31N 39°13' E 009°04'0 0.0
2014-Aug-19 01:31N 39°13' E 009°04'0 0.0
2014-Aug-19 00:31N 39°13' E 009°04'0 0.0
2014-Aug-18 23:31N 39°13' E 009°04'0 0.0
2014-Aug-18 22:31N 39°13' E 009°04'1 1.5
2014-Aug-18 21:33N 39°12' E 009°05'8 8.3
2014-Aug-18 20:33N 39°04' E 009°10'1615.6
2014-Aug-18 19:32N 38°56' E 009°27'1716.6
2014-Aug-18 18:31N 38°47' E 009°45'1515.9
2014-Aug-18 17:33N 38°39' E 010°02'1615.6
2014-Aug-18 16:33N 38°31' E 010°19'1615.5
2014-Aug-18 15:33N 38°22' E 010°36'15915.3
2014-Aug-18 05:10N 36°45' E 013°14'1016.7
2014-Aug-18 04:34N 36°42' E 013°26'1716.9
2014-Aug-18 03:34N 36°35' E 013°46'1716.8
2014-Aug-18 02:33N 36°29' E 014°05'1716.8
2014-Aug-18 01:33N 36°22' E 014°25'43815.4
2014-Aug-16 21:08N 36°30' E 023°29'1216.3
2014-Aug-16 20:22N 36°41' E 023°37'1316.1
2014-Aug-16 19:33N 36°52' E 023°45'1616.1
2014-Aug-16 18:33N 37°06' E 023°56'1616.6
2014-Aug-16 17:33N 37°20' E 024°06'8115.7
2014-Aug-16 12:24N 38°26' E 025°05'1516.7
2014-Aug-16 11:32N 38°37' E 025°17'2016.0
2014-Aug-16 10:17N 38°41' E 025°42'5 0.1
2014-Aug-14 08:34N 38°39' E 025°48'1615.3
2014-Aug-14 07:33N 38°25' E 025°41'1616.2
2014-Aug-14 06:33N 38°09' E 025°36'1515.5
2014-Aug-14 05:34N 37°54' E 025°37'1616.2
2014-Aug-14 04:33N 37°38' E 025°44'1615.8
2014-Aug-14 03:34N 37°24' E 025°52'1616.4
2014-Aug-14 02:34N 37°16' E 026°10'1717.0
2014-Aug-14 01:33N 37°09' E 026°30'1514.9
2014-Aug-14 00:33N 36°56' E 026°39'1615.8
2014-Aug-13 23:33N 36°40' E 026°40'1615.2
2014-Aug-13 22:32N 36°26' E 026°48'1616.5
2014-Aug-13 21:33N 36°15' E 027°02'1616.3
2014-Aug-13 20:33N 36°03' E 027°17'1615.6
2014-Aug-13 19:33N 35°52' E 027°30'1615.6
2014-Aug-13 18:30N 35°43' E 027°47'1716.6
2014-Aug-13 17:27N 35°44' E 028°08'1415.8
2014-Aug-13 16:33N 35°44' E 028°26'20316.6
2014-Aug-13 04:19N 35°41' E 032°36'132 4.6
2014-Aug-11 23:22N 34°13' E 034°36'1717.7
2014-Aug-11 22:24N 33°57' E 034°28'1517.3
2014-Aug-11 21:34N 33°44' E 034°19'1717.2
2014-Aug-11 20:33N 33°29' E 034°09'1717.5
2014-Aug-11 19:33N 33°14' E 033°59'1817.6
2014-Aug-11 18:34N 32°59' E 033°49'1817.5
2014-Aug-11 17:33N 32°43' E 033°39'1717.5
2014-Aug-11 16:33N 32°28' E 033°29'1817.6
2014-Aug-11 15:33N 32°13' E 033°18'1816.9
2014-Aug-11 14:28N 31°58' E 033°06'1617.4
2014-Aug-11 13:32N 31°49' E 032°50'2017.8
2014-Aug-11 12:26N 31°39' E 032°30'1214.2
2014-Aug-11 11:33N 31°27' E 032°24'  
Track history (hours):
 
Tides and Currents Weather Stations Pressure Air Temp Water Temp Dewpoint Dewpoint Depression Visibility Wind Speed Wind Dir Waves Ship Positions

Livorno Express

Last reported at 2014-Aug-20 04:33 UTC. Time now 2014-Aug-20 04:56 UTC.
Position N 41°44' E 008°01'.

Type: Cargo ship. MMSI: 310541000.

Date/timePositionNaut miles runAvg speedWind from/ knotsBaromVisibWave heightAir tempDewpointWater temp
2014-Aug-20 04:33N 41°44' E 008°01'2017.3
2014-Aug-20 03:24N 41°25' E 007°56'1517.2
2014-Aug-20 02:33N 41°10' E 007°55'1717.3
2014-Aug-20 01:33N 40°53' E 007°55'1717.0
2014-Aug-20 00:33N 40°36' E 007°56'1716.7
2014-Aug-19 23:33N 40°19' E 007°56'1716.9
2014-Aug-19 22:33N 40°02' E 007°56'1716.8
2014-Aug-19 21:33N 39°45' E 007°56'1616.3
2014-Aug-19 20:33N 39°29' E 007°57'1616.4
2014-Aug-19 19:33N 39°13' E 007°57'1616.1
2014-Aug-19 18:32N 38°58' E 008°06'1615.8
2014-Aug-19 17:33N 38°45' E 008°17'1514.6
2014-Aug-19 16:31N 38°39' E 008°35'1515.6
2014-Aug-19 15:33N 38°42' E 008°54'1717.2
2014-Aug-19 14:33N 38°56' E 009°06'1212.0
2014-Aug-19 13:33N 39°08' E 009°06'5 5.0
2014-Aug-19 12:31N 39°13' E 009°04'0 0.0
2014-Aug-19 11:31N 39°13' E 009°04'0 0.0
2014-Aug-19 10:31N 39°13' E 009°04'0 0.0
2014-Aug-19 09:31N 39°13' E 009°04'0 0.0
2014-Aug-19 08:31N 39°13' E 009°04'0 0.0
2014-Aug-19 07:31N 39°13' E 009°04'0 0.0
2014-Aug-19 06:31N 39°13' E 009°04'0 0.0
2014-Aug-19 05:31N 39°13' E 009°04'0 0.0
2014-Aug-19 04:31N 39°13' E 009°04'0 0.0
2014-Aug-19 03:31N 39°13' E 009°04'0 0.0
2014-Aug-19 02:31N 39°13' E 009°04'0 0.0
2014-Aug-19 01:31N 39°13' E 009°04'0 0.0
2014-Aug-19 00:31N 39°13' E 009°04'0 0.0
2014-Aug-18 23:31N 39°13' E 009°04'0 0.0
2014-Aug-18 22:31N 39°13' E 009°04'1 1.5
2014-Aug-18 21:33N 39°12' E 009°05'8 8.3
2014-Aug-18 20:33N 39°04' E 009°10'1615.6
2014-Aug-18 19:32N 38°56' E 009°27'1716.6
2014-Aug-18 18:31N 38°47' E 009°45'1515.9
2014-Aug-18 17:33N 38°39' E 010°02'1615.6
2014-Aug-18 16:33N 38°31' E 010°19'1615.5
2014-Aug-18 15:33N 38°22' E 010°36'15915.3
2014-Aug-18 05:10N 36°45' E 013°14'1016.7
2014-Aug-18 04:34N 36°42' E 013°26'1716.9
2014-Aug-18 03:34N 36°35' E 013°46'1716.8
2014-Aug-18 02:33N 36°29' E 014°05'1716.8
2014-Aug-18 01:33N 36°22' E 014°25'43815.4
2014-Aug-16 21:08N 36°30' E 023°29'1216.3
2014-Aug-16 20:22N 36°41' E 023°37'1316.1
2014-Aug-16 19:33N 36°52' E 023°45'1616.1
2014-Aug-16 18:33N 37°06' E 023°56'1616.6
2014-Aug-16 17:33N 37°20' E 024°06'8115.7
2014-Aug-16 12:24N 38°26' E 025°05'1516.7
2014-Aug-16 11:32N 38°37' E 025°17'2016.0
2014-Aug-16 10:17N 38°41' E 025°42'5 0.1
2014-Aug-14 08:34N 38°39' E 025°48'1615.3
2014-Aug-14 07:33N 38°25' E 025°41'1616.2
2014-Aug-14 06:33N 38°09' E 025°36'1515.5
2014-Aug-14 05:34N 37°54' E 025°37'1616.2
2014-Aug-14 04:33N 37°38' E 025°44'1615.8
2014-Aug-14 03:34N 37°24' E 025°52'1616.4
2014-Aug-14 02:34N 37°16' E 026°10'1717.0
2014-Aug-14 01:33N 37°09' E 026°30'1514.9
2014-Aug-14 00:33N 36°56' E 026°39'1615.8
2014-Aug-13 23:33N 36°40' E 026°40'1615.2
2014-Aug-13 22:32N 36°26' E 026°48'1616.5
2014-Aug-13 21:33N 36°15' E 027°02'1616.3
2014-Aug-13 20:33N 36°03' E 027°17'1615.6
2014-Aug-13 19:33N 35°52' E 027°30'1615.6
2014-Aug-13 18:30N 35°43' E 027°47'1716.6
2014-Aug-13 17:27N 35°44' E 028°08'1415.8
2014-Aug-13 16:33N 35°44' E 028°26'20316.6
2014-Aug-13 04:19N 35°41' E 032°36'132 4.6
2014-Aug-11 23:22N 34°13' E 034°36'1717.7
2014-Aug-11 22:24N 33°57' E 034°28'1517.3
2014-Aug-11 21:34N 33°44' E 034°19'1717.2
2014-Aug-11 20:33N 33°29' E 034°09'1717.5
2014-Aug-11 19:33N 33°14' E 033°59'1817.6
2014-Aug-11 18:34N 32°59' E 033°49'1817.5
2014-Aug-11 17:33N 32°43' E 033°39'1717.5
2014-Aug-11 16:33N 32°28' E 033°29'1817.6
2014-Aug-11 15:33N 32°13' E 033°18'1816.9
2014-Aug-11 14:28N 31°58' E 033°06'1617.4
2014-Aug-11 13:32N 31°49' E 032°50'2017.8
2014-Aug-11 12:26N 31°39' E 032°30'1214.2
2014-Aug-11 11:33N 31°27' E 032°24'  

Dump ship's entire track history